2H9 weather

Public forecast

Using degrees Fahrenheit for public forecast. Weather courtesy of forecast.io.

Closest aviation weather report (METAR) to Rolette Airport

Closest report is Rolla Municipal Airport, 16.0 nm (29.7 km) NE. Retrieved 2020/08/09 02:15 UTC (2 minutes ago):

K06D 090215Z AUTO 17004KT 10SM CLR 19/15 A2991 RMK AO2

Closest aviation forecast (TAF) to Rolette Airport

Closest forecast is Devils Lake Regional Airport, 50.1 nm (92.8 km) SE. Retrieved 2020-08-09 00:33 UTC (2 hours ago):

TAF KDVL 082330Z 0900/0924 VRB05KT P6SM FEW250 FM091100 19010KT P6SM BKN150 FM092100 31016G22KT P6SM SCT050 SCT150